sensor_id;sensor_type;location;lat;lon;timestamp;temperature;humidity
11304;DHT22;5707;49.588;12.148;2023-12-20T00:01:46;3.10;99.90
11304;DHT22;5707;49.588;12.148;2023-12-20T00:04:12;3.10;99.90
11304;DHT22;5707;49.588;12.148;2023-12-20T00:06:38;3.20;99.90
11304;DHT22;5707;49.588;12.148;2023-12-20T00:09:03;3.20;99.90
11304;DHT22;5707;49.588;12.148;2023-12-20T00:11:29;3.20;99.90
11304;DHT22;5707;49.588;12.148;2023-12-20T00:13:54;3.20;99.90
11304;DHT22;5707;49.588;12.148;2023-12-20T00:16:20;3.20;99.90
11304;DHT22;5707;49.588;12.148;2023-12-20T00:18:45;3.30;99.90
11304;DHT22;5707;49.588;12.148;2023-12-20T00:21:11;3.30;99.90
11304;DHT22;5707;49.588;12.148;2023-12-20T00:23:36;3.30;99.90
11304;DHT22;5707;49.588;12.148;2023-12-20T00:26:02;3.20;99.90
11304;DHT22;5707;49.588;12.148;2023-12-20T00:28:28;3.30;99.90
11304;DHT22;5707;49.588;12.148;2023-12-20T00:30:53;3.20;99.90
11304;DHT22;5707;49.588;12.148;2023-12-20T00:33:19;3.20;99.90
11304;DHT22;5707;49.588;12.148;2023-12-20T00:35:44;3.20;99.90
11304;DHT22;5707;49.588;12.148;2023-12-20T00:38:10;3.20;99.90
11304;DHT22;5707;49.588;12.148;2023-12-20T00:40:37;3.30;99.90
11304;DHT22;5707;49.588;12.148;2023-12-20T00:43:03;3.30;99.90
11304;DHT22;5707;49.588;12.148;2023-12-20T00:45:28;3.30;99.90
11304;DHT22;5707;49.588;12.148;2023-12-20T00:47:54;3.30;99.90
11304;DHT22;5707;49.588;12.148;2023-12-20T00:50:19;3.30;99.90
11304;DHT22;5707;49.588;12.148;2023-12-20T00:52:47;3.30;99.90
11304;DHT22;5707;49.588;12.148;2023-12-20T00:55:13;3.30;99.90
11304;DHT22;5707;49.588;12.148;2023-12-20T00:57:39;3.30;99.90
11304;DHT22;5707;49.588;12.148;2023-12-20T01:00:05;3.30;99.90
11304;DHT22;5707;49.588;12.148;2023-12-20T01:02:31;3.30;99.90
11304;DHT22;5707;49.588;12.148;2023-12-20T01:04:56;3.30;99.90
11304;DHT22;5707;49.588;12.148;2023-12-20T01:07:22;3.30;99.90
11304;DHT22;5707;49.588;12.148;2023-12-20T01:09:47;3.30;99.90
11304;DHT22;5707;49.588;12.148;2023-12-20T01:12:13;3.30;99.90
11304;DHT22;5707;49.588;12.148;2023-12-20T01:14:38;3.30;99.90
11304;DHT22;5707;49.588;12.148;2023-12-20T01:17:04;3.30;99.90
11304;DHT22;5707;49.588;12.148;2023-12-20T01:19:30;3.30;99.90
11304;DHT22;5707;49.588;12.148;2023-12-20T01:21:55;3.30;99.90
11304;DHT22;5707;49.588;12.148;2023-12-20T01:24:21;3.30;99.90
11304;DHT22;5707;49.588;12.148;2023-12-20T01:26:47;3.30;99.90
11304;DHT22;5707;49.588;12.148;2023-12-20T01:29:12;3.30;99.90
11304;DHT22;5707;49.588;12.148;2023-12-20T01:31:39;3.30;99.90
11304;DHT22;5707;49.588;12.148;2023-12-20T01:34:06;3.30;99.90
11304;DHT22;5707;49.588;12.148;2023-12-20T01:36:31;3.30;99.90
11304;DHT22;5707;49.588;12.148;2023-12-20T01:38:57;3.30;99.90
11304;DHT22;5707;49.588;12.148;2023-12-20T01:41:23;3.30;99.90
11304;DHT22;5707;49.588;12.148;2023-12-20T01:43:48;3.30;99.90
11304;DHT22;5707;49.588;12.148;2023-12-20T01:46:14;3.30;99.90
11304;DHT22;5707;49.588;12.148;2023-12-20T01:48:41;3.30;99.90
11304;DHT22;5707;49.588;12.148;2023-12-20T01:51:06;3.30;99.90
11304;DHT22;5707;49.588;12.148;2023-12-20T01:53:32;3.30;99.90
11304;DHT22;5707;49.588;12.148;2023-12-20T01:55:58;3.30;99.90
11304;DHT22;5707;49.588;12.148;2023-12-20T01:58:24;3.30;99.90
11304;DHT22;5707;49.588;12.148;2023-12-20T02:00:51;3.30;99.90
11304;DHT22;5707;49.588;12.148;2023-12-20T02:03:17;3.30;99.90
11304;DHT22;5707;49.588;12.148;2023-12-20T02:05:44;3.30;99.90
11304;DHT22;5707;49.588;12.148;2023-12-20T02:08:10;3.30;99.90
11304;DHT22;5707;49.588;12.148;2023-12-20T02:10:36;3.40;99.90
11304;DHT22;5707;49.588;12.148;2023-12-20T02:13:02;3.30;99.90
11304;DHT22;5707;49.588;12.148;2023-12-20T02:15:28;3.30;99.90
11304;DHT22;5707;49.588;12.148;2023-12-20T02:17:54;3.30;99.90
11304;DHT22;5707;49.588;12.148;2023-12-20T02:20:20;3.30;99.90
11304;DHT22;5707;49.588;12.148;2023-12-20T02:22:45;3.40;99.90
11304;DHT22;5707;49.588;12.148;2023-12-20T02:25:11;3.30;99.90
11304;DHT22;5707;49.588;12.148;2023-12-20T02:27:37;3.30;99.90
11304;DHT22;5707;49.588;12.148;2023-12-20T02:30:02;3.30;99.90
11304;DHT22;5707;49.588;12.148;2023-12-20T02:32:29;3.30;99.90
11304;DHT22;5707;49.588;12.148;2023-12-20T02:34:55;3.30;99.90
11304;DHT22;5707;49.588;12.148;2023-12-20T02:37:21;3.30;99.90
11304;DHT22;5707;49.588;12.148;2023-12-20T02:39:46;3.30;99.90
11304;DHT22;5707;49.588;12.148;2023-12-20T02:42:12;3.30;99.90
11304;DHT22;5707;49.588;12.148;2023-12-20T02:44:38;3.30;99.90
11304;DHT22;5707;49.588;12.148;2023-12-20T02:47:03;3.30;99.90
11304;DHT22;5707;49.588;12.148;2023-12-20T02:49:29;3.30;99.90
11304;DHT22;5707;49.588;12.148;2023-12-20T02:51:55;3.40;99.90
11304;DHT22;5707;49.588;12.148;2023-12-20T02:54:20;3.40;99.90
11304;DHT22;5707;49.588;12.148;2023-12-20T02:56:46;3.40;99.90
11304;DHT22;5707;49.588;12.148;2023-12-20T02:59:12;3.40;99.90
11304;DHT22;5707;49.588;12.148;2023-12-20T03:01:45;3.40;99.90
11304;DHT22;5707;49.588;12.148;2023-12-20T03:04:11;3.40;99.90
11304;DHT22;5707;49.588;12.148;2023-12-20T03:06:37;3.40;99.90
11304;DHT22;5707;49.588;12.148;2023-12-20T03:09:03;3.40;99.90
11304;DHT22;5707;49.588;12.148;2023-12-20T03:11:28;3.40;99.90
11304;DHT22;5707;49.588;12.148;2023-12-20T03:13:55;3.40;99.90
11304;DHT22;5707;49.588;12.148;2023-12-20T03:16:20;3.40;99.90
11304;DHT22;5707;49.588;12.148;2023-12-20T03:18:46;3.40;99.90
11304;DHT22;5707;49.588;12.148;2023-12-20T03:21:11;3.40;99.90
11304;DHT22;5707;49.588;12.148;2023-12-20T03:23:37;3.40;99.90
11304;DHT22;5707;49.588;12.148;2023-12-20T03:26:03;3.30;99.90
11304;DHT22;5707;49.588;12.148;2023-12-20T03:28:29;3.30;99.90
11304;DHT22;5707;49.588;12.148;2023-12-20T03:30:54;3.30;99.90
11304;DHT22;5707;49.588;12.148;2023-12-20T03:33:20;3.30;99.90
11304;DHT22;5707;49.588;12.148;2023-12-20T03:35:45;3.30;99.90
11304;DHT22;5707;49.588;12.148;2023-12-20T03:38:11;3.30;99.90
11304;DHT22;5707;49.588;12.148;2023-12-20T03:40:37;3.30;99.90
11304;DHT22;5707;49.588;12.148;2023-12-20T03:43:02;3.30;99.90
11304;DHT22;5707;49.588;12.148;2023-12-20T03:45:28;3.30;99.90
11304;DHT22;5707;49.588;12.148;2023-12-20T03:47:53;3.40;99.90
11304;DHT22;5707;49.588;12.148;2023-12-20T03:50:22;3.40;99.90
11304;DHT22;5707;49.588;12.148;2023-12-20T03:52:48;3.40;99.90
11304;DHT22;5707;49.588;12.148;2023-12-20T03:55:13;3.40;99.90
11304;DHT22;5707;49.588;12.148;2023-12-20T03:57:39;3.40;99.90
11304;DHT22;5707;49.588;12.148;2023-12-20T04:00:06;3.40;99.90
11304;DHT22;5707;49.588;12.148;2023-12-20T04:02:36;3.40;99.90
11304;DHT22;5707;49.588;12.148;2023-12-20T04:05:02;3.40;99.90
11304;DHT22;5707;49.588;12.148;2023-12-20T04:07:27;3.30;99.90
11304;DHT22;5707;49.588;12.148;2023-12-20T04:09:53;3.30;99.90
11304;DHT22;5707;49.588;12.148;2023-12-20T04:12:18;3.30;99.90
11304;DHT22;5707;49.588;12.148;2023-12-20T04:14:44;3.30;99.90
11304;DHT22;5707;49.588;12.148;2023-12-20T04:17:09;3.30;99.90
11304;DHT22;5707;49.588;12.148;2023-12-20T04:19:35;3.30;99.90
11304;DHT22;5707;49.588;12.148;2023-12-20T04:22:00;3.20;99.90
11304;DHT22;5707;49.588;12.148;2023-12-20T04:24:26;3.20;99.90
11304;DHT22;5707;49.588;12.148;2023-12-20T04:26:51;3.20;99.90
11304;DHT22;5707;49.588;12.148;2023-12-20T04:29:17;3.20;99.90
11304;DHT22;5707;49.588;12.148;2023-12-20T04:31:43;3.20;99.90
11304;DHT22;5707;49.588;12.148;2023-12-20T04:34:08;3.10;99.90
11304;DHT22;5707;49.588;12.148;2023-12-20T04:36:34;3.10;99.90
11304;DHT22;5707;49.588;12.148;2023-12-20T04:39:00;3.10;99.90
11304;DHT22;5707;49.588;12.148;2023-12-20T04:41:25;3.10;99.90
11304;DHT22;5707;49.588;12.148;2023-12-20T04:43:52;3.10;99.90
11304;DHT22;5707;49.588;12.148;2023-12-20T04:46:17;3.00;99.90
11304;DHT22;5707;49.588;12.148;2023-12-20T04:48:43;3.00;99.90
11304;DHT22;5707;49.588;12.148;2023-12-20T04:51:11;3.00;99.90
11304;DHT22;5707;49.588;12.148;2023-12-20T04:53:37;3.00;99.90
11304;DHT22;5707;49.588;12.148;2023-12-20T04:56:02;3.00;99.90
11304;DHT22;5707;49.588;12.148;2023-12-20T04:58:28;3.00;99.90
11304;DHT22;5707;49.588;12.148;2023-12-20T05:00:54;3.00;99.90
11304;DHT22;5707;49.588;12.148;2023-12-20T05:03:20;2.90;99.90
11304;DHT22;5707;49.588;12.148;2023-12-20T05:05:45;3.00;99.90
11304;DHT22;5707;49.588;12.148;2023-12-20T05:08:11;3.00;99.90
11304;DHT22;5707;49.588;12.148;2023-12-20T05:10:36;3.00;99.90
11304;DHT22;5707;49.588;12.148;2023-12-20T05:13:02;3.00;99.90
11304;DHT22;5707;49.588;12.148;2023-12-20T05:15:28;2.90;99.90
11304;DHT22;5707;49.588;12.148;2023-12-20T05:17:53;2.90;99.90
11304;DHT22;5707;49.588;12.148;2023-12-20T05:20:19;2.90;99.90
11304;DHT22;5707;49.588;12.148;2023-12-20T05:22:44;2.90;99.90
11304;DHT22;5707;49.588;12.148;2023-12-20T05:25:10;2.90;99.90
11304;DHT22;5707;49.588;12.148;2023-12-20T05:27:36;2.90;99.90
11304;DHT22;5707;49.588;12.148;2023-12-20T05:30:01;2.90;99.90
11304;DHT22;5707;49.588;12.148;2023-12-20T05:32:27;2.90;99.90
11304;DHT22;5707;49.588;12.148;2023-12-20T05:34:53;2.90;99.90
11304;DHT22;5707;49.588;12.148;2023-12-20T05:37:18;2.90;99.90
11304;DHT22;5707;49.588;12.148;2023-12-20T05:39:44;2.90;99.90
11304;DHT22;5707;49.588;12.148;2023-12-20T05:42:09;2.80;99.90
11304;DHT22;5707;49.588;12.148;2023-12-20T05:44:35;2.80;99.90
11304;DHT22;5707;49.588;12.148;2023-12-20T05:47:01;2.80;99.90
11304;DHT22;5707;49.588;12.148;2023-12-20T05:49:27;2.90;99.90
11304;DHT22;5707;49.588;12.148;2023-12-20T05:51:52;2.80;99.90
11304;DHT22;5707;49.588;12.148;2023-12-20T05:54:19;2.90;99.90
11304;DHT22;5707;49.588;12.148;2023-12-20T05:56:44;2.80;99.90
11304;DHT22;5707;49.588;12.148;2023-12-20T05:59:10;2.90;99.90
11304;DHT22;5707;49.588;12.148;2023-12-20T06:01:36;2.90;99.90
11304;DHT22;5707;49.588;12.148;2023-12-20T06:04:01;2.90;99.90
11304;DHT22;5707;49.588;12.148;2023-12-20T06:06:28;2.90;99.90
11304;DHT22;5707;49.588;12.148;2023-12-20T06:08:54;2.90;99.90
11304;DHT22;5707;49.588;12.148;2023-12-20T06:11:19;2.90;99.90
11304;DHT22;5707;49.588;12.148;2023-12-20T06:13:45;2.90;99.90
11304;DHT22;5707;49.588;12.148;2023-12-20T06:16:10;2.90;99.90
11304;DHT22;5707;49.588;12.148;2023-12-20T06:18:36;2.90;99.90
11304;DHT22;5707;49.588;12.148;2023-12-20T06:21:02;2.90;99.90
11304;DHT22;5707;49.588;12.148;2023-12-20T06:23:28;2.90;99.90
11304;DHT22;5707;49.588;12.148;2023-12-20T06:25:53;2.90;99.90
11304;DHT22;5707;49.588;12.148;2023-12-20T06:28:19;2.90;99.90
11304;DHT22;5707;49.588;12.148;2023-12-20T06:30:45;2.90;99.90
11304;DHT22;5707;49.588;12.148;2023-12-20T06:33:12;2.90;99.90
11304;DHT22;5707;49.588;12.148;2023-12-20T06:35:38;2.90;99.90
11304;DHT22;5707;49.588;12.148;2023-12-20T06:38:04;2.90;99.90
11304;DHT22;5707;49.588;12.148;2023-12-20T06:40:30;2.90;99.90
11304;DHT22;5707;49.588;12.148;2023-12-20T06:42:55;2.90;99.90
11304;DHT22;5707;49.588;12.148;2023-12-20T06:45:21;3.00;99.90
11304;DHT22;5707;49.588;12.148;2023-12-20T06:47:46;3.00;99.90
11304;DHT22;5707;49.588;12.148;2023-12-20T06:50:12;3.00;99.90
11304;DHT22;5707;49.588;12.148;2023-12-20T06:52:37;3.00;99.90
11304;DHT22;5707;49.588;12.148;2023-12-20T06:55:03;3.00;99.90
11304;DHT22;5707;49.588;12.148;2023-12-20T06:57:30;3.00;99.90
11304;DHT22;5707;49.588;12.148;2023-12-20T06:59:55;3.00;99.90
11304;DHT22;5707;49.588;12.148;2023-12-20T07:02:21;3.00;99.90
11304;DHT22;5707;49.588;12.148;2023-12-20T07:04:47;3.00;99.90
11304;DHT22;5707;49.588;12.148;2023-12-20T07:07:13;3.00;99.90
11304;DHT22;5707;49.588;12.148;2023-12-20T07:09:38;3.00;99.90
11304;DHT22;5707;49.588;12.148;2023-12-20T07:12:06;3.00;99.90
11304;DHT22;5707;49.588;12.148;2023-12-20T07:14:32;3.00;99.90
11304;DHT22;5707;49.588;12.148;2023-12-20T07:17:00;3.00;99.90
11304;DHT22;5707;49.588;12.148;2023-12-20T07:19:26;3.10;99.90
11304;DHT22;5707;49.588;12.148;2023-12-20T07:21:52;3.10;99.90
11304;DHT22;5707;49.588;12.148;2023-12-20T07:24:18;3.10;99.90
11304;DHT22;5707;49.588;12.148;2023-12-20T07:26:44;3.10;99.90
11304;DHT22;5707;49.588;12.148;2023-12-20T07:29:09;3.10;99.90
11304;DHT22;5707;49.588;12.148;2023-12-20T07:31:35;3.10;99.90
11304;DHT22;5707;49.588;12.148;2023-12-20T07:34:00;3.10;99.90
11304;DHT22;5707;49.588;12.148;2023-12-20T07:36:26;3.10;99.90
11304;DHT22;5707;49.588;12.148;2023-12-20T07:38:51;3.10;99.90
11304;DHT22;5707;49.588;12.148;2023-12-20T07:41:17;3.20;99.90
11304;DHT22;5707;49.588;12.148;2023-12-20T07:43:46;3.20;99.90
11304;DHT22;5707;49.588;12.148;2023-12-20T07:46:12;3.20;99.90
11304;DHT22;5707;49.588;12.148;2023-12-20T07:48:37;3.20;99.90
11304;DHT22;5707;49.588;12.148;2023-12-20T07:51:06;3.20;99.90
11304;DHT22;5707;49.588;12.148;2023-12-20T07:53:33;3.30;99.90
11304;DHT22;5707;49.588;12.148;2023-12-20T07:55:59;3.30;99.90
11304;DHT22;5707;49.588;12.148;2023-12-20T07:58:25;3.30;99.90
11304;DHT22;5707;49.588;12.148;2023-12-20T08:00:50;3.40;99.90
11304;DHT22;5707;49.588;12.148;2023-12-20T08:03:16;3.40;99.90
11304;DHT22;5707;49.588;12.148;2023-12-20T08:05:41;3.40;99.90
11304;DHT22;5707;49.588;12.148;2023-12-20T08:08:07;3.50;99.90
11304;DHT22;5707;49.588;12.148;2023-12-20T08:10:33;3.60;99.90
11304;DHT22;5707;49.588;12.148;2023-12-20T08:12:58;3.60;99.90
11304;DHT22;5707;49.588;12.148;2023-12-20T08:15:24;3.70;99.90
11304;DHT22;5707;49.588;12.148;2023-12-20T08:17:49;3.80;99.90
11304;DHT22;5707;49.588;12.148;2023-12-20T08:20:18;3.80;99.90
11304;DHT22;5707;49.588;12.148;2023-12-20T08:22:44;3.90;99.90
11304;DHT22;5707;49.588;12.148;2023-12-20T08:25:09;3.90;99.90
11304;DHT22;5707;49.588;12.148;2023-12-20T08:27:41;4.00;99.90
11304;DHT22;5707;49.588;12.148;2023-12-20T08:30:08;4.10;99.90
11304;DHT22;5707;49.588;12.148;2023-12-20T08:32:34;4.10;99.90
11304;DHT22;5707;49.588;12.148;2023-12-20T08:35:00;4.10;99.90
11304;DHT22;5707;49.588;12.148;2023-12-20T08:37:25;3.80;99.90
11304;DHT22;5707;49.588;12.148;2023-12-20T08:39:51;3.60;99.90
11304;DHT22;5707;49.588;12.148;2023-12-20T08:42:16;3.60;99.90
11304;DHT22;5707;49.588;12.148;2023-12-20T08:44:42;3.50;99.90
11304;DHT22;5707;49.588;12.148;2023-12-20T08:47:08;3.50;99.90
11304;DHT22;5707;49.588;12.148;2023-12-20T08:49:33;3.50;99.90
11304;DHT22;5707;49.588;12.148;2023-12-20T08:51:59;3.40;99.90
11304;DHT22;5707;49.588;12.148;2023-12-20T08:54:25;3.30;99.90
11304;DHT22;5707;49.588;12.148;2023-12-20T08:56:50;3.30;99.90
11304;DHT22;5707;49.588;12.148;2023-12-20T08:59:16;3.60;99.90
11304;DHT22;5707;49.588;12.148;2023-12-20T09:01:41;3.90;99.90
11304;DHT22;5707;49.588;12.148;2023-12-20T09:04:07;4.10;99.90
11304;DHT22;5707;49.588;12.148;2023-12-20T09:06:32;4.30;99.90
11304;DHT22;5707;49.588;12.148;2023-12-20T09:08:58;4.40;99.90
11304;DHT22;5707;49.588;12.148;2023-12-20T09:11:24;4.50;99.90
11304;DHT22;5707;49.588;12.148;2023-12-20T09:13:49;4.70;99.90
11304;DHT22;5707;49.588;12.148;2023-12-20T09:16:15;4.80;99.90
11304;DHT22;5707;49.588;12.148;2023-12-20T09:18:41;4.90;99.90
11304;DHT22;5707;49.588;12.148;2023-12-20T09:21:07;5.00;99.90
11304;DHT22;5707;49.588;12.148;2023-12-20T09:23:32;5.10;99.90
11304;DHT22;5707;49.588;12.148;2023-12-20T09:25:58;5.10;99.90
11304;DHT22;5707;49.588;12.148;2023-12-20T09:28:23;5.20;99.90
11304;DHT22;5707;49.588;12.148;2023-12-20T09:30:49;5.20;99.90
11304;DHT22;5707;49.588;12.148;2023-12-20T09:33:14;5.30;99.90
11304;DHT22;5707;49.588;12.148;2023-12-20T09:35:41;5.40;99.90
11304;DHT22;5707;49.588;12.148;2023-12-20T09:38:07;5.40;99.90
11304;DHT22;5707;49.588;12.148;2023-12-20T09:40:35;5.30;99.90
11304;DHT22;5707;49.588;12.148;2023-12-20T09:43:10;5.10;99.90
11304;DHT22;5707;49.588;12.148;2023-12-20T09:45:36;5.10;99.90
11304;DHT22;5707;49.588;12.148;2023-12-20T09:48:03;5.20;99.90
11304;DHT22;5707;49.588;12.148;2023-12-20T09:50:30;5.40;99.90
11304;DHT22;5707;49.588;12.148;2023-12-20T09:52:58;5.50;99.90
11304;DHT22;5707;49.588;12.148;2023-12-20T09:55:27;5.60;99.90
11304;DHT22;5707;49.588;12.148;2023-12-20T09:57:53;5.60;99.90
11304;DHT22;5707;49.588;12.148;2023-12-20T10:00:19;5.60;99.90
11304;DHT22;5707;49.588;12.148;2023-12-20T10:02:50;5.80;99.90
11304;DHT22;5707;49.588;12.148;2023-12-20T10:05:17;6.10;99.90
11304;DHT22;5707;49.588;12.148;2023-12-20T10:07:46;6.20;99.90
11304;DHT22;5707;49.588;12.148;2023-12-20T10:10:13;6.20;99.90
11304;DHT22;5707;49.588;12.148;2023-12-20T10:12:39;6.10;99.90
11304;DHT22;5707;49.588;12.148;2023-12-20T10:15:05;5.90;99.90
11304;DHT22;5707;49.588;12.148;2023-12-20T10:17:31;5.70;99.90
11304;DHT22;5707;49.588;12.148;2023-12-20T10:19:57;5.50;99.90
11304;DHT22;5707;49.588;12.148;2023-12-20T10:22:24;5.30;99.90
11304;DHT22;5707;49.588;12.148;2023-12-20T10:24:49;4.90;99.90
11304;DHT22;5707;49.588;12.148;2023-12-20T10:27:18;4.80;99.90
11304;DHT22;5707;49.588;12.148;2023-12-20T10:29:45;4.80;99.90
11304;DHT22;5707;49.588;12.148;2023-12-20T10:32:24;4.70;99.90
11304;DHT22;5707;49.588;12.148;2023-12-20T10:34:51;4.50;99.90
11304;DHT22;5707;49.588;12.148;2023-12-20T10:37:16;4.40;99.90
11304;DHT22;5707;49.588;12.148;2023-12-20T10:39:50;4.40;99.90
11304;DHT22;5707;49.588;12.148;2023-12-20T10:42:18;4.60;99.90
11304;DHT22;5707;49.588;12.148;2023-12-20T10:44:46;5.10;99.90
11304;DHT22;5707;49.588;12.148;2023-12-20T10:47:13;5.70;99.90
11304;DHT22;5707;49.588;12.148;2023-12-20T10:49:39;6.10;99.90
11304;DHT22;5707;49.588;12.148;2023-12-20T10:52:06;6.10;99.90
11304;DHT22;5707;49.588;12.148;2023-12-20T10:54:32;6.00;99.90
11304;DHT22;5707;49.588;12.148;2023-12-20T10:56:58;5.90;99.90
11304;DHT22;5707;49.588;12.148;2023-12-20T10:59:25;5.90;99.90
11304;DHT22;5707;49.588;12.148;2023-12-20T11:01:54;6.00;99.90
11304;DHT22;5707;49.588;12.148;2023-12-20T11:04:41;6.10;99.90
11304;DHT22;5707;49.588;12.148;2023-12-20T11:07:38;6.40;99.90
11304;DHT22;5707;49.588;12.148;2023-12-20T11:10:26;6.70;99.90
11304;DHT22;5707;49.588;12.148;2023-12-20T11:12:59;6.80;99.90
11304;DHT22;5707;49.588;12.148;2023-12-20T11:15:26;6.80;99.90
11304;DHT22;5707;49.588;12.148;2023-12-20T11:17:55;6.80;99.90
11304;DHT22;5707;49.588;12.148;2023-12-20T11:20:24;6.80;99.90
11304;DHT22;5707;49.588;12.148;2023-12-20T11:23:00;6.70;99.90
11304;DHT22;5707;49.588;12.148;2023-12-20T11:25:26;6.70;99.90
11304;DHT22;5707;49.588;12.148;2023-12-20T11:28:11;6.80;99.90
11304;DHT22;5707;49.588;12.148;2023-12-20T11:30:47;7.00;99.90
11304;DHT22;5707;49.588;12.148;2023-12-20T11:33:14;7.00;99.90
11304;DHT22;5707;49.588;12.148;2023-12-20T11:35:40;6.80;99.90
11304;DHT22;5707;49.588;12.148;2023-12-20T11:38:10;6.50;99.90
11304;DHT22;5707;49.588;12.148;2023-12-20T11:40:36;6.40;99.90
11304;DHT22;5707;49.588;12.148;2023-12-20T11:43:02;6.40;99.90
11304;DHT22;5707;49.588;12.148;2023-12-20T11:45:28;6.40;99.90
11304;DHT22;5707;49.588;12.148;2023-12-20T11:47:54;6.40;99.90
11304;DHT22;5707;49.588;12.148;2023-12-20T11:50:23;6.50;99.90
11304;DHT22;5707;49.588;12.148;2023-12-20T11:52:49;6.50;99.90
11304;DHT22;5707;49.588;12.148;2023-12-20T11:55:15;6.40;99.90
11304;DHT22;5707;49.588;12.148;2023-12-20T11:57:42;6.20;99.90
11304;DHT22;5707;49.588;12.148;2023-12-20T12:00:08;6.20;99.90
11304;DHT22;5707;49.588;12.148;2023-12-20T12:02:34;6.20;99.90
11304;DHT22;5707;49.588;12.148;2023-12-20T12:04:59;6.20;99.90
11304;DHT22;5707;49.588;12.148;2023-12-20T12:07:25;6.30;99.90
11304;DHT22;5707;49.588;12.148;2023-12-20T12:09:51;6.30;99.90
11304;DHT22;5707;49.588;12.148;2023-12-20T12:12:17;6.30;99.90
11304;DHT22;5707;49.588;12.148;2023-12-20T12:14:45;6.30;99.90
11304;DHT22;5707;49.588;12.148;2023-12-20T12:17:14;6.40;99.90
11304;DHT22;5707;49.588;12.148;2023-12-20T12:19:40;6.30;99.90
11304;DHT22;5707;49.588;12.148;2023-12-20T12:24:45;6.00;99.90
11304;DHT22;5707;49.588;12.148;2023-12-20T12:27:12;5.90;99.90
11304;DHT22;5707;49.588;12.148;2023-12-20T12:29:38;6.00;99.90
11304;DHT22;5707;49.588;12.148;2023-12-20T12:32:05;6.10;99.90
11304;DHT22;5707;49.588;12.148;2023-12-20T12:34:32;6.20;99.90
11304;DHT22;5707;49.588;12.148;2023-12-20T12:36:58;6.20;99.90
11304;DHT22;5707;49.588;12.148;2023-12-20T12:39:24;6.20;99.90
11304;DHT22;5707;49.588;12.148;2023-12-20T12:41:53;6.00;99.90
11304;DHT22;5707;49.588;12.148;2023-12-20T12:44:19;5.90;99.90
11304;DHT22;5707;49.588;12.148;2023-12-20T12:46:48;5.80;99.90
11304;DHT22;5707;49.588;12.148;2023-12-20T12:49:16;5.80;99.90
11304;DHT22;5707;49.588;12.148;2023-12-20T12:51:42;5.60;99.90
11304;DHT22;5707;49.588;12.148;2023-12-20T12:54:08;5.50;99.90
11304;DHT22;5707;49.588;12.148;2023-12-20T12:56:35;5.50;99.90
11304;DHT22;5707;49.588;12.148;2023-12-20T12:59:01;5.40;99.90
11304;DHT22;5707;49.588;12.148;2023-12-20T13:01:27;5.30;99.90
11304;DHT22;5707;49.588;12.148;2023-12-20T13:03:52;5.30;99.90
11304;DHT22;5707;49.588;12.148;2023-12-20T13:06:18;5.20;99.90
11304;DHT22;5707;49.588;12.148;2023-12-20T13:08:43;5.20;99.90
11304;DHT22;5707;49.588;12.148;2023-12-20T13:11:10;5.30;99.90
11304;DHT22;5707;49.588;12.148;2023-12-20T13:13:35;5.40;99.90
11304;DHT22;5707;49.588;12.148;2023-12-20T13:16:01;5.60;99.90
11304;DHT22;5707;49.588;12.148;2023-12-20T13:18:26;5.70;99.90
11304;DHT22;5707;49.588;12.148;2023-12-20T13:20:52;5.70;99.90
11304;DHT22;5707;49.588;12.148;2023-12-20T13:23:17;5.60;99.90
11304;DHT22;5707;49.588;12.148;2023-12-20T13:25:43;5.70;99.90
11304;DHT22;5707;49.588;12.148;2023-12-20T13:28:11;5.70;99.90
11304;DHT22;5707;49.588;12.148;2023-12-20T13:30:36;5.80;99.90
11304;DHT22;5707;49.588;12.148;2023-12-20T13:33:02;5.80;99.90
11304;DHT22;5707;49.588;12.148;2023-12-20T13:35:28;5.70;99.90
11304;DHT22;5707;49.588;12.148;2023-12-20T13:37:53;5.60;99.90
11304;DHT22;5707;49.588;12.148;2023-12-20T13:40:19;5.50;99.90
11304;DHT22;5707;49.588;12.148;2023-12-20T13:42:44;5.40;99.90
11304;DHT22;5707;49.588;12.148;2023-12-20T13:45:11;5.30;99.90
11304;DHT22;5707;49.588;12.148;2023-12-20T13:47:36;5.40;99.90
11304;DHT22;5707;49.588;12.148;2023-12-20T13:50:03;5.40;99.90
11304;DHT22;5707;49.588;12.148;2023-12-20T13:52:29;5.60;99.90
11304;DHT22;5707;49.588;12.148;2023-12-20T13:54:55;5.60;99.90
11304;DHT22;5707;49.588;12.148;2023-12-20T13:57:20;5.40;99.90
11304;DHT22;5707;49.588;12.148;2023-12-20T13:59:46;5.20;99.90
11304;DHT22;5707;49.588;12.148;2023-12-20T14:02:11;5.20;99.90
11304;DHT22;5707;49.588;12.148;2023-12-20T14:04:37;5.10;99.90
11304;DHT22;5707;49.588;12.148;2023-12-20T14:07:04;5.20;99.90
11304;DHT22;5707;49.588;12.148;2023-12-20T14:09:30;5.20;99.90
11304;DHT22;5707;49.588;12.148;2023-12-20T14:11:56;5.10;99.90
11304;DHT22;5707;49.588;12.148;2023-12-20T14:14:21;5.00;99.90
11304;DHT22;5707;49.588;12.148;2023-12-20T14:16:47;4.90;99.90
11304;DHT22;5707;49.588;12.148;2023-12-20T14:19:12;4.70;99.90
11304;DHT22;5707;49.588;12.148;2023-12-20T14:21:38;4.60;99.90
11304;DHT22;5707;49.588;12.148;2023-12-20T14:24:03;4.60;99.90
11304;DHT22;5707;49.588;12.148;2023-12-20T14:26:30;4.70;99.90
11304;DHT22;5707;49.588;12.148;2023-12-20T14:28:56;4.70;99.90
11304;DHT22;5707;49.588;12.148;2023-12-20T14:31:21;4.70;99.90
11304;DHT22;5707;49.588;12.148;2023-12-20T14:33:49;4.70;99.90
11304;DHT22;5707;49.588;12.148;2023-12-20T14:36:16;4.60;99.90
11304;DHT22;5707;49.588;12.148;2023-12-20T14:38:43;4.50;99.90
11304;DHT22;5707;49.588;12.148;2023-12-20T14:41:09;4.40;99.90
11304;DHT22;5707;49.588;12.148;2023-12-20T14:43:34;4.30;99.90
11304;DHT22;5707;49.588;12.148;2023-12-20T14:46:00;4.20;99.90
11304;DHT22;5707;49.588;12.148;2023-12-20T14:48:25;4.20;99.90
11304;DHT22;5707;49.588;12.148;2023-12-20T14:50:53;4.10;99.90
11304;DHT22;5707;49.588;12.148;2023-12-20T14:53:18;4.10;99.90
11304;DHT22;5707;49.588;12.148;2023-12-20T14:55:44;3.90;99.90
11304;DHT22;5707;49.588;12.148;2023-12-20T14:58:10;3.80;99.90
11304;DHT22;5707;49.588;12.148;2023-12-20T15:00:36;3.80;99.90
11304;DHT22;5707;49.588;12.148;2023-12-20T15:03:01;3.70;99.90
11304;DHT22;5707;49.588;12.148;2023-12-20T15:05:29;3.60;99.90
11304;DHT22;5707;49.588;12.148;2023-12-20T15:07:55;3.60;99.90
11304;DHT22;5707;49.588;12.148;2023-12-20T15:10:20;3.60;99.90
11304;DHT22;5707;49.588;12.148;2023-12-20T15:12:46;3.50;99.90
11304;DHT22;5707;49.588;12.148;2023-12-20T15:15:12;3.50;99.90
11304;DHT22;5707;49.588;12.148;2023-12-20T15:17:37;3.50;99.90
11304;DHT22;5707;49.588;12.148;2023-12-20T15:20:03;3.50;99.90
11304;DHT22;5707;49.588;12.148;2023-12-20T15:22:30;3.50;99.90
11304;DHT22;5707;49.588;12.148;2023-12-20T15:24:56;3.40;99.90
11304;DHT22;5707;49.588;12.148;2023-12-20T15:27:22;3.50;99.90
11304;DHT22;5707;49.588;12.148;2023-12-20T15:29:48;3.50;99.90
11304;DHT22;5707;49.588;12.148;2023-12-20T15:32:15;3.50;99.90
11304;DHT22;5707;49.588;12.148;2023-12-20T15:34:41;3.50;99.90
11304;DHT22;5707;49.588;12.148;2023-12-20T15:37:07;3.50;99.90
11304;DHT22;5707;49.588;12.148;2023-12-20T15:39:32;3.60;99.90
11304;DHT22;5707;49.588;12.148;2023-12-20T15:41:58;3.60;99.90